Time;durP1;ratioP1;P1;durP2;ratioP2;P2;SDS_P1;SDS_P2;PMS_P1;PMS_P2;Temp;Humidity;BMP_temperature;BMP_pressure;BME280_temperature;BME280_humidity;BME280_pressure;Samples;Min_cycle;Max_cycle;Signal;HPM_P1;HPM_P2
2021/08/04 00:01:34;;;;;;;7.63;6.15;;;614.90;2355.20;;;;;;5034202;28;20638;-71
2021/08/04 00:04:00;;;;;;;11.10;7.20;;;614.90;2380.80;;;;;;5035743;28;20064;-72
2021/08/04 00:06:26;;;;;;;12.63;6.78;;;614.90;2406.40;;;;;;5031745;28;20104;-72
2021/08/04 00:08:52;;;;;;;8.93;6.80;;;614.90;2432.00;;;;;;5031255;28;20052;-72
2021/08/04 00:11:18;;;;;;;10.52;7.18;;;614.90;2432.00;;;;;;5031618;28;20034;-72
2021/08/04 00:13:44;;;;;;;8.05;6.40;;;614.90;2432.00;;;;;;5034312;28;20381;-72
2021/08/04 00:16:09;;;;;;;14.35;8.27;;;614.80;2432.00;;;;;;5032825;28;20028;-72
2021/08/04 00:18:35;;;;;;;11.43;6.85;;;614.80;2432.00;;;;;;5032826;28;20045;-71
2021/08/04 00:21:01;;;;;;;9.50;6.25;;;614.80;2432.00;;;;;;5034011;28;20026;-72
2021/08/04 00:23:27;;;;;;;7.88;6.13;;;614.70;2432.00;;;;;;5027183;28;20036;-71
2021/08/04 00:25:53;;;;;;;10.48;6.15;;;614.70;2432.00;;;;;;5033554;28;20079;-72
2021/08/04 00:28:18;;;;;;;9.82;6.63;;;614.70;2432.00;;;;;;5032792;28;20064;-72
2021/08/04 00:30:44;;;;;;;9.85;6.13;;;614.70;2432.00;;;;;;5032705;28;20018;-72
2021/08/04 00:33:10;;;;;;;8.13;6.13;;;614.60;2432.00;;;;;;5030257;28;20104;-72
2021/08/04 00:35:36;;;;;;;7.53;6.07;;;614.60;2432.00;;;;;;5030122;28;20049;-72
2021/08/04 00:38:09;;;;;;;10.73;6.63;;;614.60;2432.00;;;;;;5030665;28;20037;-72
2021/08/04 00:40:36;;;;;;;13.40;6.68;;;614.60;2432.00;;;;;;5032374;28;20025;-72
2021/08/04 00:43:01;;;;;;;10.48;6.22;;;614.60;2432.00;;;;;;5032474;28;20033;-72
2021/08/04 00:45:27;;;;;;;9.25;6.72;;;614.60;2432.00;;;;;;5029506;28;20472;-72
2021/08/04 00:47:55;;;;;;;7.97;6.32;;;614.50;2432.00;;;;;;5035398;28;20029;-72
2021/08/04 00:50:21;;;;;;;8.70;6.28;;;614.50;2432.00;;;;;;5028013;28;20013;-72
2021/08/04 00:52:48;;;;;;;9.27;6.40;;;614.50;2432.00;;;;;;5022559;28;20334;-72
2021/08/04 00:55:14;;;;;;;7.88;6.28;;;614.50;2432.00;;;;;;5040532;28;20017;-72
2021/08/04 00:57:40;;;;;;;7.13;5.80;;;614.50;2432.00;;;;;;5020347;28;20025;-72
2021/08/04 01:00:07;;;;;;;11.57;5.97;;;614.40;2432.00;;;;;;5031985;28;20021;-72
2021/08/04 01:02:46;;;;;;;9.35;6.22;;;614.40;2432.00;;;;;;5027658;28;20018;-72
2021/08/04 01:05:27;;;;;;;8.73;5.97;;;614.40;2432.00;;;;;;5030100;28;20046;-72
2021/08/04 01:08:03;;;;;;;7.95;5.65;;;614.40;2432.00;;;;;;5032841;28;20115;-73
2021/08/04 01:10:37;;;;;;;8.60;5.68;;;589.70;2432.00;;;;;;5031185;28;20052;-73
2021/08/04 01:13:09;;;;;;;11.30;6.07;;;589.70;2432.00;;;;;;5027718;28;20071;-73
2021/08/04 01:15:46;;;;;;;9.27;5.75;;;589.60;2432.00;;;;;;5032104;28;20022;-72
2021/08/04 01:18:23;;;;;;;9.10;5.35;;;589.60;2432.00;;;;;;5035584;28;20051;-72
2021/08/04 01:20:49;;;;;;;7.15;4.97;;;589.60;2432.00;;;;;;5028721;28;20021;-73
2021/08/04 01:23:57;;;;;;;5.88;4.80;;;589.60;2432.00;;;;;;5025018;28;20040;-72
2021/08/04 01:26:43;;;;;;;7.90;5.18;;;589.50;2432.00;;;;;;5025145;28;20033;-72
2021/08/04 01:29:14;;;;;;;6.47;4.93;;;589.50;2432.00;;;;;;5033579;28;20018;-72
2021/08/04 01:31:43;;;;;;;7.93;4.55;;;589.50;2432.00;;;;;;5033940;28;20033;-73
2021/08/04 01:34:10;;;;;;;7.25;4.80;;;589.50;2432.00;;;;;;5027734;28;20028;-72
2021/08/04 01:36:36;;;;;;;10.88;5.65;;;589.50;2432.00;;;;;;5036211;28;20404;-72
2021/08/04 01:39:05;;;;;;;7.93;5.05;;;589.50;2432.00;;;;;;5033363;28;20065;-72
2021/08/04 01:41:33;;;;;;;7.20;5.15;;;589.50;2432.00;;;;;;5032078;28;20357;-72
2021/08/04 01:44:00;;;;;;;6.93;4.75;;;589.60;2432.00;;;;;;5021732;28;20029;-72
2021/08/04 01:46:27;;;;;;;6.70;5.13;;;589.70;2432.00;;;;;;5044546;28;20037;-72
2021/08/04 01:48:54;;;;;;;6.03;4.50;;;589.60;2432.00;;;;;;5035905;28;20084;-72
2021/08/04 01:51:23;;;;;;;9.30;5.10;;;589.50;2432.00;;;;;;5032757;28;20029;-72
2021/08/04 01:53:50;;;;;;;6.38;4.57;;;589.50;2432.00;;;;;;5029959;28;20017;-72
2021/08/04 01:56:16;;;;;;;6.40;4.43;;;589.50;2432.00;;;;;;5032990;28;20040;-72
2021/08/04 01:58:43;;;;;;;6.30;4.28;;;589.60;2432.00;;;;;;5030065;28;20029;-72
2021/08/04 02:01:09;;;;;;;5.90;4.00;;;589.70;2432.00;;;;;;5039926;28;20033;-72
2021/08/04 02:03:35;;;;;;;5.93;3.97;;;589.60;2432.00;;;;;;5037088;28;20463;-72
2021/08/04 02:06:11;;;;;;;5.15;3.85;;;589.50;2432.00;;;;;;5038481;28;20078;-72
2021/08/04 02:08:52;;;;;;;5.20;3.72;;;589.50;2432.00;;;;;;5049348;28;20108;-72
2021/08/04 02:11:23;;;;;;;5.00;3.75;;;589.40;2432.00;;;;;;5035835;28;20025;-73
2021/08/04 02:14:02;;;;;;;5.07;4.30;;;589.40;2432.00;;;;;;5034437;28;20022;-72
2021/08/04 02:16:33;;;;;;;6.50;3.90;;;589.30;2432.00;;;;;;5034237;28;20045;-73
2021/08/04 02:19:30;;;;;;;6.38;3.97;;;589.30;2432.00;;;;;;5034282;28;20158;-73
2021/08/04 02:22:03;;;;;;;6.75;4.20;;;589.40;2432.00;;;;;;5034599;28;20033;-72
2021/08/04 02:24:32;;;;;;;11.27;4.72;;;589.40;2432.00;;;;;;5037620;28;20487;-73
2021/08/04 02:27:00;;;;;;;5.80;4.10;;;589.40;2432.00;;;;;;5035135;28;20021;-73
2021/08/04 02:29:28;;;;;;;6.88;4.43;;;589.50;2432.00;;;;;;5046004;28;20021;-72
2021/08/04 02:31:54;;;;;;;8.18;4.78;;;589.50;2432.00;;;;;;5043961;28;20460;-72
2021/08/04 02:34:21;;;;;;;5.28;4.03;;;589.50;2432.00;;;;;;5033791;28;20080;-72
2021/08/04 02:36:47;;;;;;;6.70;4.20;;;589.50;2432.00;;;;;;5033348;28;20547;-72
2021/08/04 02:39:12;;;;;;;8.00;4.63;;;589.60;2432.00;;;;;;5038062;28;20108;-72
2021/08/04 02:41:38;;;;;;;6.30;4.70;;;589.50;2432.00;;;;;;5034502;28;20057;-73
2021/08/04 02:44:04;;;;;;;8.52;3.92;;;589.50;2432.00;;;;;;5046269;28;20034;-72
2021/08/04 02:46:31;;;;;;;5.57;3.95;;;589.50;2432.00;;;;;;5033756;28;20038;-72
2021/08/04 02:48:58;;;;;;;7.97;4.85;;;589.50;2432.00;;;;;;5033804;28;20480;-72
2021/08/04 02:51:25;;;;;;;10.13;5.30;;;589.50;2432.00;;;;;;5032203;28;20033;-72
2021/08/04 02:53:58;;;;;;;8.23;4.30;;;589.60;2432.00;;;;;;5033165;28;20552;-72
2021/08/04 02:56:25;;;;;;;6.80;4.13;;;589.60;2432.00;;;;;;5033876;28;20033;-72
2021/08/04 02:58:52;;;;;;;6.38;4.28;;;589.60;2432.00;;;;;;5040185;28;20023;-72
2021/08/04 03:01:18;;;;;;;8.35;5.38;;;589.60;2432.00;;;;;;5038675;28;20136;-72
2021/08/04 03:03:43;;;;;;;9.93;5.75;;;589.50;2432.00;;;;;;5032954;28;20455;-72
2021/08/04 03:06:09;;;;;;;7.28;4.22;;;589.50;2432.00;;;;;;5032409;28;20040;-72
2021/08/04 03:08:36;;;;;;;7.28;5.28;;;589.50;2432.00;;;;;;5034830;28;20021;-72
2021/08/04 03:11:02;;;;;;;8.10;5.30;;;589.40;2432.00;;;;;;5028812;28;20021;-72
2021/08/04 03:13:28;;;;;;;6.05;5.05;;;589.40;2432.00;;;;;;5035355;28;20025;-73
2021/08/04 03:15:55;;;;;;;8.25;5.07;;;589.30;2432.00;;;;;;5032331;28;20492;-73
2021/08/04 03:18:20;;;;;;;8.90;5.72;;;589.30;2432.00;;;;;;5037904;28;20044;-72
2021/08/04 03:20:46;;;;;;;9.00;6.15;;;589.30;2432.00;;;;;;5043632;28;20116;-72
2021/08/04 03:23:12;;;;;;;8.05;5.68;;;589.20;2432.00;;;;;;5038025;28;20028;-71
2021/08/04 03:25:38;;;;;;;9.43;6.18;;;589.20;2432.00;;;;;;5035035;28;20980;-71
2021/08/04 03:28:04;;;;;;;7.45;6.00;;;589.10;2432.00;;;;;;5036825;28;20121;-72
2021/08/04 03:30:30;;;;;;;8.65;6.60;;;589.10;2432.00;;;;;;5043499;28;20163;-71
2021/08/04 03:32:55;;;;;;;7.55;6.20;;;589.10;2432.00;;;;;;5039486;28;20036;-71
2021/08/04 03:35:21;;;;;;;11.32;7.15;;;589.00;2432.00;;;;;;5036912;28;20037;-71
2021/08/04 03:37:47;;;;;;;12.60;7.00;;;589.10;2432.00;;;;;;5037002;28;20024;-71
2021/08/04 03:40:13;;;;;;;10.30;6.93;;;589.00;2432.00;;;;;;5035680;28;20024;-71
2021/08/04 03:42:39;;;;;;;11.38;6.40;;;589.00;2432.00;;;;;;5040905;28;20059;-71
2021/08/04 03:45:06;;;;;;;8.88;6.72;;;589.00;2432.00;;;;;;5044518;28;20026;-71
2021/08/04 03:47:31;;;;;;;9.48;7.10;;;588.80;2432.00;;;;;;5039058;28;20036;-72
2021/08/04 03:49:57;;;;;;;11.70;8.02;;;588.80;2432.00;;;;;;5030473;28;20040;-71
2021/08/04 03:52:23;;;;;;;12.27;7.65;;;588.80;2432.00;;;;;;5028440;28;20053;-72
2021/08/04 03:54:49;;;;;;;9.90;8.10;;;588.80;2432.00;;;;;;5035836;28;20474;-71
2021/08/04 03:57:15;;;;;;;11.30;7.45;;;564.10;2432.00;;;;;;5031322;28;20089;-71
2021/08/04 03:59:40;;;;;;;10.55;7.63;;;564.10;2432.00;;;;;;5029615;28;20030;-72
2021/08/04 04:02:06;;;;;;;10.27;6.80;;;588.80;2432.00;;;;;;5035995;28;20529;-72
2021/08/04 04:04:33;;;;;;;10.65;8.25;;;588.80;2432.00;;;;;;5032635;28;20076;-72
2021/08/04 04:06:58;;;;;;;11.05;7.72;;;588.80;2432.00;;;;;;5041033;28;20716;-72
2021/08/04 04:09:24;;;;;;;10.98;7.53;;;588.80;2432.00;;;;;;5036305;28;20100;-72
2021/08/04 04:11:50;;;;;;;9.35;7.53;;;588.90;2432.00;;;;;;5037835;28;20436;-72
2021/08/04 04:14:15;;;;;;;12.52;7.50;;;588.90;2432.00;;;;;;5016307;28;20028;-72
2021/08/04 04:16:41;;;;;;;11.85;8.82;;;589.00;2432.00;;;;;;5033909;28;20053;-71
2021/08/04 04:19:08;;;;;;;12.77;9.30;;;589.00;2432.00;;;;;;5024581;28;20465;-72
2021/08/04 04:21:35;;;;;;;16.10;8.30;;;588.90;2432.00;;;;;;5032822;28;20032;-72
2021/08/04 04:24:01;;;;;;;11.68;6.97;;;588.90;2432.00;;;;;;5021875;28;20021;-72
2021/08/04 04:26:26;;;;;;;11.82;8.02;;;588.90;2432.00;;;;;;5024277;28;20037;-72
2021/08/04 04:28:52;;;;;;;8.52;6.60;;;589.00;2432.00;;;;;;5028682;28;20025;-72
2021/08/04 04:31:18;;;;;;;9.52;6.78;;;588.80;2432.00;;;;;;5027792;28;20018;-72
2021/08/04 04:33:44;;;;;;;12.90;7.22;;;589.00;2432.00;;;;;;5021240;28;20041;-72
2021/08/04 04:36:09;;;;;;;10.77;7.68;;;589.10;2432.00;;;;;;5028558;28;20370;-73
2021/08/04 04:38:35;;;;;;;12.52;7.00;;;589.10;2432.00;;;;;;5029536;28;20029;-73
2021/08/04 04:41:01;;;;;;;11.52;6.68;;;589.20;2432.00;;;;;;5029835;28;20466;-72
2021/08/04 04:43:27;;;;;;;13.13;7.55;;;589.30;2432.00;;;;;;5041757;28;20044;-73
2021/08/04 04:45:52;;;;;;;8.00;6.88;;;589.40;2432.00;;;;;;5028190;28;20026;-73
2021/08/04 04:48:18;;;;;;;11.25;6.35;;;589.50;2432.00;;;;;;5034093;28;20532;-73
2021/08/04 04:50:44;;;;;;;9.05;6.78;;;589.40;2432.00;;;;;;5021294;28;20026;-73
2021/08/04 04:53:10;;;;;;;12.20;7.00;;;589.60;2432.00;;;;;;5019559;28;20716;-73
2021/08/04 04:55:36;;;;;;;9.88;6.32;;;614.40;2432.00;;;;;;5025005;28;20149;-73
2021/08/04 04:58:02;;;;;;;10.60;6.50;;;614.40;2432.00;;;;;;5029527;28;20029;-73
2021/08/04 05:00:28;;;;;;;7.93;5.63;;;614.70;2432.00;;;;;;5021703;28;20025;-73
2021/08/04 05:02:53;;;;;;;9.98;6.50;;;614.70;2432.00;;;;;;5033042;28;20111;-73
2021/08/04 05:05:19;;;;;;;10.77;6.45;;;614.70;2432.00;;;;;;5031377;28;20041;-73
2021/08/04 05:07:45;;;;;;;11.75;6.10;;;614.90;2432.00;;;;;;5040995;28;20428;-73
2021/08/04 05:10:11;;;;;;;11.23;5.95;;;615.00;2432.00;;;;;;5024759;28;20036;-73
2021/08/04 05:12:37;;;;;;;11.60;6.13;;;615.30;2432.00;;;;;;5036372;28;20372;-73
2021/08/04 05:15:04;;;;;;;10.05;5.43;;;615.20;2432.00;;;;;;5016152;28;20025;-73
2021/08/04 05:17:30;;;;;;;6.88;5.07;;;615.30;2432.00;;;;;;5035889;28;20048;-73
2021/08/04 05:19:56;;;;;;;10.68;6.78;;;615.20;2432.00;;;;;;5041931;28;20119;-73
2021/08/04 05:22:22;;;;;;;8.18;5.15;;;640.00;2432.00;;;;;;5035726;28;20383;-73
2021/08/04 05:24:48;;;;;;;6.32;4.85;;;640.20;2432.00;;;;;;5026352;28;20018;-73
2021/08/04 05:27:14;;;;;;;5.63;3.92;;;640.40;2432.00;;;;;;5027112;28;20056;-73
2021/08/04 05:29:39;;;;;;;10.57;6.32;;;640.40;2432.00;;;;;;5030239;28;20023;-72
2021/08/04 05:32:06;;;;;;;7.35;5.00;;;640.50;2432.00;;;;;;5030895;28;20457;-72
2021/08/04 05:34:31;;;;;;;9.20;5.43;;;640.70;2432.00;;;;;;5028408;28;20108;-72
2021/08/04 05:36:57;;;;;;;8.15;5.50;;;640.70;2432.00;;;;;;5030558;28;20548;-72
2021/08/04 05:39:23;;;;;;;6.97;4.47;;;640.80;2432.00;;;;;;5026644;28;20614;-73
2021/08/04 05:41:49;;;;;;;6.85;4.55;;;640.90;2432.00;;;;;;5034317;28;20105;-73
2021/08/04 05:44:14;;;;;;;5.65;4.57;;;665.70;2432.00;;;;;;5034600;28;20045;-73
2021/08/04 05:46:40;;;;;;;7.97;5.47;;;665.60;2432.00;;;;;;5032955;28;20025;-73
2021/08/04 05:49:06;;;;;;;7.03;5.00;;;665.80;2432.00;;;;;;5031458;28;20889;-73
2021/08/04 05:51:31;;;;;;;13.55;11.30;;;665.90;2432.00;;;;;;5029532;28;20026;-73
2021/08/04 05:53:57;;;;;;;8.32;5.88;;;666.10;2432.00;;;;;;5030682;28;20022;-73
2021/08/04 05:56:23;;;;;;;11.52;6.20;;;666.10;2432.00;;;;;;5028477;28;20053;-73
2021/08/04 05:58:49;;;;;;;11.07;7.45;;;666.10;2406.40;;;;;;5029970;28;20033;-73
2021/08/04 06:01:14;;;;;;;8.35;5.78;;;666.10;2406.40;;;;;;5028741;28;20026;-73
2021/08/04 06:03:40;;;;;;;8.48;5.10;;;666.20;2406.40;;;;;;5031205;28;20057;-73
2021/08/04 06:06:06;;;;;;;9.50;6.60;;;666.50;2380.80;;;;;;5032138;28;20041;-73
2021/08/04 06:08:32;;;;;;;8.32;5.55;;;691.20;2380.80;;;;;;5029215;28;20445;-73
2021/08/04 06:10:57;;;;;;;6.20;5.10;;;691.40;2380.80;;;;;;5030430;28;20089;-73
2021/08/04 06:13:24;;;;;;;10.15;5.80;;;691.70;2380.80;;;;;;5032215;28;20472;-73
2021/08/04 06:15:50;;;;;;;12.05;6.30;;;691.70;2355.20;;;;;;5033206;28;20045;-73
2021/08/04 06:18:16;;;;;;;10.65;6.05;;;691.90;2355.20;;;;;;5041464;28;20041;-73
2021/08/04 06:20:42;;;;;;;8.90;5.78;;;692.10;2304.00;;;;;;5027647;28;20029;-73
2021/08/04 06:23:08;;;;;;;7.82;6.00;;;716.90;2304.00;;;;;;5031756;28;20030;-73
2021/08/04 06:25:33;;;;;;;8.55;5.50;;;716.90;2304.00;;;;;;5028911;28;20021;-73
2021/08/04 06:27:59;;;;;;;8.02;5.30;;;717.00;2278.40;;;;;;5030318;28;20057;-74
2021/08/04 06:30:25;;;;;;;7.50;5.50;;;717.10;2278.40;;;;;;5035379;28;20545;-73
2021/08/04 06:32:51;;;;;;;6.85;5.05;;;717.10;2278.40;;;;;;5026454;28;20022;-73
2021/08/04 06:35:16;;;;;;;8.32;5.55;;;717.40;2252.80;;;;;;5021325;28;20037;-72
2021/08/04 06:37:42;;;;;;;6.63;5.05;;;717.70;2201.60;;;;;;5034013;28;20030;-73
2021/08/04 06:40:09;;;;;;;8.65;5.22;;;742.50;2201.60;;;;;;5033353;28;20017;-73
2021/08/04 06:42:34;;;;;;;8.70;5.00;;;742.70;2201.60;;;;;;5040170;28;20488;-73
2021/08/04 06:45:00;;;;;;;7.10;5.68;;;742.90;2176.00;;;;;;5041342;28;20029;-73
2021/08/04 06:47:26;;;;;;;6.47;5.18;;;743.10;2150.40;;;;;;5032978;28;20093;-73
2021/08/04 06:49:51;;;;;;;8.77;4.60;;;743.20;2124.80;;;;;;5030413;28;20081;-73
2021/08/04 06:52:17;;;;;;;7.38;5.07;;;768.00;2099.20;;;;;;5033194;28;20121;-73
2021/08/04 06:54:43;;;;;;;9.93;5.57;;;768.30;2048.00;;;;;;5033454;28;20025;-73
2021/08/04 06:57:08;;;;;;;7.00;5.40;;;768.20;2073.60;;;;;;5027896;28;20061;-74
2021/08/04 06:59:34;;;;;;;7.40;5.07;;;768.30;2048.00;;;;;;5022433;28;20108;-74
2021/08/04 07:02:01;;;;;;;5.97;5.13;;;768.30;2022.40;;;;;;5033634;28;20044;-73
2021/08/04 07:04:29;;;;;;;7.80;5.63;;;768.30;2022.40;;;;;;5015184;28;20100;-74
2021/08/04 07:06:56;;;;;;;7.10;4.43;;;768.50;2048.00;;;;;;5036728;28;20087;-73
2021/08/04 07:09:23;;;;;;;7.65;4.80;;;768.50;1996.80;;;;;;5034453;28;20502;-73
2021/08/04 07:11:49;;;;;;;6.78;4.28;;;768.60;1971.20;;;;;;5037151;28;20022;-73
2021/08/04 07:14:16;;;;;;;7.90;4.72;;;768.50;1996.80;;;;;;5029017;28;20469;-73
2021/08/04 07:16:43;;;;;;;5.68;4.15;;;768.40;1971.20;;;;;;5035745;28;20025;-74
2021/08/04 07:19:10;;;;;;;11.02;5.28;;;768.50;1971.20;;;;;;5019470;28;20057;-73
2021/08/04 07:21:37;;;;;;;6.07;4.40;;;768.70;1945.60;;;;;;5035567;28;20029;-73
2021/08/04 07:24:03;;;;;;;7.57;4.10;;;768.60;1945.60;;;;;;5024105;28;20064;-72
2021/08/04 07:26:29;;;;;;;6.13;3.80;;;768.80;1920.00;;;;;;5033020;28;20092;-73
2021/08/04 07:28:56;;;;;;;8.77;4.70;;;793.70;1945.60;;;;;;5035805;28;20386;-74
2021/08/04 07:31:23;;;;;;;10.32;4.97;;;794.00;1945.60;;;;;;5035451;28;20024;-73
2021/08/04 07:33:48;;;;;;;5.63;4.53;;;794.10;1945.60;;;;;;5026448;28;20025;-73
2021/08/04 07:36:14;;;;;;;5.55;4.88;;;794.30;1894.40;;;;;;5024157;28;20030;-73
2021/08/04 07:38:40;;;;;;;4.63;3.80;;;794.20;1894.40;;;;;;5033092;28;20436;-73
2021/08/04 07:41:06;;;;;;;6.93;4.35;;;794.50;1894.40;;;;;;5032389;28;20064;-74
2021/08/04 07:43:32;;;;;;;6.55;4.32;;;794.50;1894.40;;;;;;5037697;28;20384;-74
2021/08/04 07:45:57;;;;;;;6.20;4.25;;;794.50;1894.40;;;;;;5037952;28;20024;-73
2021/08/04 07:48:23;;;;;;;5.95;4.07;;;794.10;1894.40;;;;;;5040234;28;20508;-74
2021/08/04 07:50:49;;;;;;;9.38;4.90;;;793.80;1920.00;;;;;;5035872;28;20044;-73
2021/08/04 07:53:15;;;;;;;5.32;3.95;;;793.60;1945.60;;;;;;5035293;28;20034;-74
2021/08/04 07:55:41;;;;;;;5.72;3.95;;;793.70;1920.00;;;;;;5020475;28;20064;-73
2021/08/04 07:58:07;;;;;;;9.90;4.40;;;794.00;1894.40;;;;;;5024433;28;20021;-74
2021/08/04 08:00:33;;;;;;;7.30;4.15;;;794.00;1894.40;;;;;;5047448;28;20017;-73
2021/08/04 08:02:59;;;;;;;6.80;3.70;;;793.80;1920.00;;;;;;5035711;28;20024;-73
2021/08/04 08:05:25;;;;;;;6.70;3.97;;;794.40;1868.80;;;;;;5031826;28;20029;-73
2021/08/04 08:07:51;;;;;;;8.13;3.88;;;819.40;1843.20;;;;;;5031116;28;20025;-73
2021/08/04 08:10:19;;;;;;;4.78;3.80;;;820.00;1817.60;;;;;;5036942;28;20036;-73
2021/08/04 08:12:45;;;;;;;6.07;4.18;;;844.80;1792.00;;;;;;5043563;28;20028;-73
2021/08/04 08:15:12;;;;;;;5.90;3.70;;;845.00;1792.00;;;;;;5036840;28;20036;-73
2021/08/04 08:17:39;;;;;;;6.88;3.60;;;844.80;1792.00;;;;;;5030519;28;20389;-73
2021/08/04 08:20:06;;;;;;;4.10;3.50;;;845.00;1766.40;;;;;;5034690;28;20033;-73
2021/08/04 08:22:32;;;;;;;6.53;3.60;;;845.50;1740.80;;;;;;5045751;28;20032;-73
2021/08/04 08:24:58;;;;;;;5.50;4.13;;;845.50;1689.60;;;;;;5036744;28;20073;-73
2021/08/04 08:27:23;;;;;;;5.07;3.30;;;845.40;1715.20;;;;;;5028904;28;20075;-73
2021/08/04 08:29:49;;;;;;;8.98;4.53;;;845.50;1689.60;;;;;;5032000;28;20021;-73
2021/08/04 08:32:15;;;;;;;8.60;3.40;;;870.50;1689.60;;;;;;5031565;28;20108;-73
2021/08/04 08:34:41;;;;;;;5.70;3.88;;;845.60;1664.00;;;;;;5030302;28;20060;-73
2021/08/04 08:37:06;;;;;;;4.82;3.42;;;845.40;1638.40;;;;;;5036637;28;20054;-73
2021/08/04 08:39:32;;;;;;;11.85;3.20;;;845.40;1638.40;;;;;;5035234;28;20104;-73
2021/08/04 08:42:02;;;;;;;7.05;3.50;;;845.50;1612.80;;;;;;5032054;28;20049;-73
2021/08/04 08:44:28;;;;;;;5.32;3.63;;;870.40;1561.60;;;;;;5035771;28;20518;-73
2021/08/04 08:46:54;;;;;;;4.70;3.53;;;870.60;1587.20;;;;;;5040749;28;20026;-73
2021/08/04 08:49:29;;;;;;;7.45;4.90;;;871.10;1536.00;;;;;;5035329;28;20037;-73
2021/08/04 08:51:55;;;;;;;7.13;4.15;;;896.10;1510.40;;;;;;5028647;28;20075;-73
2021/08/04 08:54:22;;;;;;;8.48;4.30;;;896.10;1510.40;;;;;;5027563;28;20038;-73
2021/08/04 08:56:48;;;;;;;4.70;3.50;;;896.20;1484.80;;;;;;5034141;28;20018;-73
2021/08/04 08:59:18;;;;;;;5.03;3.22;;;896.30;1484.80;;;;;;5031632;28;20021;-73
2021/08/04 09:01:44;;;;;;;6.70;3.33;;;896.10;1459.20;;;;;;5023898;28;20534;-73
2021/08/04 09:04:12;;;;;;;5.22;3.45;;;896.50;1459.20;;;;;;5028516;28;20076;-74
2021/08/04 09:06:53;;;;;;;4.78;3.45;;;896.40;1433.60;;;;;;5036268;28;20022;-73
2021/08/04 09:09:37;;;;;;;5.00;3.83;;;896.50;1433.60;;;;;;5022944;28;20495;-74
2021/08/04 09:12:05;;;;;;;7.95;4.10;;;921.60;1433.60;;;;;;5028926;28;20021;-73
2021/08/04 09:14:33;;;;;;;3.83;3.00;;;922.40;1382.40;;;;;;5019573;28;20041;-73
2021/08/04 09:17:07;;;;;;;4.43;3.40;;;921.80;1382.40;;;;;;5034365;28;20040;-73
2021/08/04 09:19:42;;;;;;;4.35;3.10;;;921.60;1382.40;;;;;;5034916;28;20022;-73
2021/08/04 09:22:22;;;;;;;6.13;3.63;;;922.30;1331.20;;;;;;5035789;28;20108;-73
2021/08/04 09:25:06;;;;;;;6.03;3.25;;;922.10;1305.60;;;;;;5020914;28;20049;-73
2021/08/04 09:27:50;;;;;;;5.63;4.20;;;947.40;1305.60;;;;;;5020072;28;20468;-73
2021/08/04 09:30:29;;;;;;;5.45;3.50;;;947.20;1305.60;;;;;;5033591;28;20020;-73
2021/08/04 09:33:13;;;;;;;5.53;3.13;;;947.20;1331.20;;;;;;5031607;28;20048;-73
2021/08/04 09:35:54;;;;;;;6.82;4.55;;;922.30;1305.60;;;;;;5018873;28;20029;-73
2021/08/04 09:38:21;;;;;;;7.90;3.70;;;947.80;1280.00;;;;;;5031501;28;20511;-73
2021/08/04 09:41:11;;;;;;;4.68;3.17;;;947.90;1228.80;;;;;;5029589;28;20044;-73
2021/08/04 09:43:36;;;;;;;8.43;5.80;;;972.90;1228.80;;;;;;5029864;28;20891;-73
2021/08/04 09:46:02;;;;;;;4.45;3.17;;;973.40;1203.20;;;;;;5042962;28;20063;-73
2021/08/04 09:48:28;;;;;;;6.00;3.33;;;973.60;1203.20;;;;;;5038034;28;20033;-73
2021/08/04 09:50:56;;;;;;;5.82;4.03;;;998.60;1203.20;;;;;;5018439;28;20071;-73
2021/08/04 09:53:33;;;;;;;4.95;3.42;;;998.90;1177.60;;;;;;5030395;28;20100;-73
2021/08/04 09:56:15;;;;;;;6.45;5.13;;;998.90;1177.60;;;;;;5020307;28;20067;-73
2021/08/04 09:58:48;;;;;;;8.05;4.93;;;998.40;1177.60;;;;;;5032065;28;20029;-73
2021/08/04 10:01:22;;;;;;;6.45;4.55;;;998.50;1177.60;;;;;;5033330;28;20076;-73
2021/08/04 10:04:06;;;;;;;6.90;4.63;;;973.60;1177.60;;;;;;5030356;28;20643;-73
2021/08/04 10:06:33;;;;;;;25.02;11.63;;;998.60;1177.60;;;;;;5029917;28;20034;-73
2021/08/04 10:09:00;;;;;;;7.25;5.50;;;999.10;1152.00;;;;;;5028415;28;20834;-73
2021/08/04 10:11:27;;;;;;;8.15;4.28;;;998.40;1203.20;;;;;;5030730;28;20086;-73
2021/08/04 10:13:57;;;;;;;7.78;4.40;;;973.40;1177.60;;;;;;5036196;28;20013;-74
2021/08/04 10:16:33;;;;;;;7.07;5.50;;;973.40;1177.60;;;;;;5032468;28;20026;-74
2021/08/04 10:19:01;;;;;;;9.45;5.72;;;973.50;1177.60;;;;;;5030425;28;20029;-73
2021/08/04 10:21:27;;;;;;;6.13;4.68;;;998.60;1177.60;;;;;;5033711;28;20017;-74
2021/08/04 10:23:54;;;;;;;6.55;5.10;;;973.40;1177.60;;;;;;5033655;28;20024;-74
2021/08/04 10:26:21;;;;;;;4.82;3.70;;;973.50;1152.00;;;;;;5032348;28;20420;-73
2021/08/04 10:28:52;;;;;;;4.55;3.80;;;998.40;1152.00;;;;;;5038315;28;20511;-73
2021/08/04 10:31:18;;;;;;;8.65;7.75;;;1024.00;1100.80;;;;;;5031058;28;20025;-74
2021/08/04 10:33:43;;;;;;;9.63;7.18;;;1024.50;1126.40;;;;;;5037916;28;20673;-73
2021/08/04 10:36:15;;;;;;;58.13;30.55;;;1049.70;1126.40;;;;;;5030855;28;20467;-73
2021/08/04 10:38:58;;;;;;;7.35;5.35;;;1050.10;1126.40;;;;;;5036380;28;20025;-74
2021/08/04 10:41:26;;;;;;;7.43;5.00;;;1050.40;1075.20;;;;;;5035112;28;20033;-74
2021/08/04 10:43:53;;;;;;;7.07;4.22;;;1075.70;1075.20;;;;;;5040913;28;20033;-73
2021/08/04 10:46:31;;;;;;;4.53;3.45;;;1075.40;1049.60;;;;;;5033946;28;20095;-74
2021/08/04 10:49:05;;;;;;;4.60;3.53;;;1075.40;1049.60;;;;;;5023276;28;20033;-74
2021/08/04 10:51:32;;;;;;;6.97;4.15;;;1050.50;1075.20;;;;;;5036086;28;20083;-74
2021/08/04 10:54:00;;;;;;;7.05;4.60;;;1050.40;1049.60;;;;;;5035892;28;20078;-74
2021/08/04 10:56:32;;;;;;;5.35;4.75;;;1050.10;1049.60;;;;;;5024714;28;20036;-73
2021/08/04 10:59:13;;;;;;;6.63;4.50;;;1075.30;1049.60;;;;;;5027427;28;20029;-73
2021/08/04 11:01:38;;;;;;;5.32;4.20;;;1050.40;1049.60;;;;;;5033186;28;20065;-74
2021/08/04 11:04:05;;;;;;;4.40;3.88;;;1075.40;1049.60;;;;;;5029532;28;20045;-74
2021/08/04 11:06:32;;;;;;;5.25;3.97;;;1075.30;998.40;;;;;;5036093;28;20059;-73
2021/08/04 11:09:13;;;;;;;5.60;4.00;;;1050.50;1024.00;;;;;;5042751;28;20029;-73
2021/08/04 11:12:05;;;;;;;5.55;4.50;;;1076.00;998.40;;;;;;5026956;28;20500;-73
2021/08/04 11:14:46;;;;;;;4.75;4.05;;;1076.10;998.40;;;;;;5030001;28;20025;-73
2021/08/04 11:17:14;;;;;;;6.38;4.22;;;1100.90;998.40;;;;;;5030600;28;20123;-73
2021/08/04 11:20:04;;;;;;;4.95;3.25;;;1101.10;998.40;;;;;;5029795;28;20092;-73
2021/08/04 11:22:31;;;;;;;5.38;4.00;;;1075.30;998.40;;;;;;5009447;28;20112;-74
2021/08/04 11:25:00;;;;;;;6.90;4.93;;;1075.30;998.40;;;;;;5029782;28;20060;-73
2021/08/04 11:27:28;;;;;;;5.97;5.00;;;1075.50;998.40;;;;;;5028507;28;20065;-73
2021/08/04 11:29:56;;;;;;;6.97;4.55;;;1050.40;972.80;;;;;;5029603;28;20025;-73
2021/08/04 11:32:27;;;;;;;5.78;4.75;;;1050.50;972.80;;;;;;5029851;28;20113;-73
2021/08/04 11:34:54;;;;;;;6.82;5.03;;;1075.40;972.80;;;;;;5004647;28;20025;-73
2021/08/04 11:37:21;;;;;;;5.20;4.57;;;1075.50;998.40;;;;;;5029734;28;20061;-73
2021/08/04 11:39:55;;;;;;;6.30;4.78;;;1075.40;972.80;;;;;;5029808;28;20052;-73
2021/08/04 11:42:22;;;;;;;7.70;4.82;;;1075.60;947.20;;;;;;5029446;28;20056;-73
2021/08/04 11:44:48;;;;;;;6.03;4.28;;;1100.80;972.80;;;;;;5028757;28;20045;-74
2021/08/04 11:47:14;;;;;;;4.65;4.00;;;1076.00;972.80;;;;;;5029205;28;20742;-73
2021/08/04 11:49:47;;;;;;;5.32;4.63;;;1075.40;947.20;;;;;;5028547;28;20033;-73
2021/08/04 11:52:21;;;;;;;6.93;4.32;;;1075.50;972.80;;;;;;5029376;28;20032;-73
2021/08/04 11:54:50;;;;;;;5.15;3.25;;;1050.40;947.20;;;;;;5026248;28;20112;-73
2021/08/04 11:57:42;;;;;;;8.07;4.57;;;1050.40;972.80;;;;;;5027742;28;20025;-73
2021/08/04 12:00:17;;;;;;;4.90;4.40;;;1050.50;972.80;;;;;;5035725;28;20028;-73
2021/08/04 12:02:44;;;;;;;7.35;4.93;;;1075.40;947.20;;;;;;5031544;28;20032;-74
2021/08/04 12:05:12;;;;;;;7.47;4.32;;;1076.10;972.80;;;;;;5030494;28;20053;-74
2021/08/04 12:07:41;;;;;;;5.53;4.55;;;1100.90;972.80;;;;;;5033345;28;20468;-73
2021/08/04 12:10:08;;;;;;;5.15;4.38;;;1076.00;972.80;;;;;;5030842;28;20113;-73
2021/08/04 12:12:37;;;;;;;7.53;4.72;;;1076.10;972.80;;;;;;5030720;28;20025;-73
2021/08/04 12:15:19;;;;;;;5.55;4.30;;;1076.10;972.80;;;;;;5031870;28;20022;-73
2021/08/04 12:17:45;;;;;;;5.38;4.82;;;1101.30;972.80;;;;;;5032194;28;20503;-74
2021/08/04 12:20:13;;;;;;;4.65;3.85;;;1076.00;972.80;;;;;;5028183;28;20037;-73
2021/08/04 12:22:40;;;;;;;4.65;3.55;;;1075.80;947.20;;;;;;5033753;28;20375;-73